sensor_id;sensor_type;location;lat;lon;timestamp;temperature;humidity
76104;HTU21D;64831;44.870;37.336;2023-03-14T00:00:15;4.18;66.03
76104;HTU21D;64831;44.870;37.336;2023-03-14T00:02:41;4.18;65.85
76104;HTU21D;64831;44.870;37.336;2023-03-14T00:05:07;4.19;65.56
76104;HTU21D;64831;44.870;37.336;2023-03-14T00:07:34;4.21;65.36
76104;HTU21D;64831;44.870;37.336;2023-03-14T00:10:02;4.20;65.14
76104;HTU21D;64831;44.870;37.336;2023-03-14T00:12:29;4.21;65.10
76104;HTU21D;64831;44.870;37.336;2023-03-14T00:14:55;4.20;64.84
76104;HTU21D;64831;44.870;37.336;2023-03-14T00:17:21;4.19;64.73
76104;HTU21D;64831;44.870;37.336;2023-03-14T00:19:46;4.17;64.64
76104;HTU21D;64831;44.870;37.336;2023-03-14T00:22:12;4.13;64.22
76104;HTU21D;64831;44.870;37.336;2023-03-14T00:24:38;4.14;64.43
76104;HTU21D;64831;44.870;37.336;2023-03-14T00:27:03;4.13;64.53
76104;HTU21D;64831;44.870;37.336;2023-03-14T00:29:29;4.12;64.74
76104;HTU21D;64831;44.870;37.336;2023-03-14T00:31:55;4.13;64.95
76104;HTU21D;64831;44.870;37.336;2023-03-14T00:34:20;4.10;65.46
76104;HTU21D;64831;44.870;37.336;2023-03-14T00:36:46;4.12;65.59
76104;HTU21D;64831;44.870;37.336;2023-03-14T00:39:12;4.09;66.20
76104;HTU21D;64831;44.870;37.336;2023-03-14T00:41:37;4.08;66.75
76104;HTU21D;64831;44.870;37.336;2023-03-14T00:44:03;4.08;66.72
76104;HTU21D;64831;44.870;37.336;2023-03-14T00:46:29;4.12;66.70
76104;HTU21D;64831;44.870;37.336;2023-03-14T00:48:54;4.15;66.48
76104;HTU21D;64831;44.870;37.336;2023-03-14T00:51:22;4.15;66.40
76104;HTU21D;64831;44.870;37.336;2023-03-14T00:53:47;4.14;66.52
76104;HTU21D;64831;44.870;37.336;2023-03-14T00:56:13;4.15;66.70
76104;HTU21D;64831;44.870;37.336;2023-03-14T00:58:39;4.16;66.19
76104;HTU21D;64831;44.870;37.336;2023-03-14T01:01:09;4.19;65.75
76104;HTU21D;64831;44.870;37.336;2023-03-14T01:03:36;4.21;65.54
76104;HTU21D;64831;44.870;37.336;2023-03-14T01:06:15;4.20;65.33
76104;HTU21D;64831;44.870;37.336;2023-03-14T01:08:42;4.19;65.10
76104;HTU21D;64831;44.870;37.336;2023-03-14T01:11:09;4.18;65.13
76104;HTU21D;64831;44.870;37.336;2023-03-14T01:13:35;4.15;65.41
76104;HTU21D;64831;44.870;37.336;2023-03-14T01:16:05;4.12;65.91
76104;HTU21D;64831;44.870;37.336;2023-03-14T01:18:32;4.12;65.90
76104;HTU21D;64831;44.870;37.336;2023-03-14T01:20:57;4.09;65.95
76104;HTU21D;64831;44.870;37.336;2023-03-14T01:23:23;4.07;66.11
76104;HTU21D;64831;44.870;37.336;2023-03-14T01:25:49;4.07;66.18
76104;HTU21D;64831;44.870;37.336;2023-03-14T01:28:15;4.07;66.17
76104;HTU21D;64831;44.870;37.336;2023-03-14T01:30:41;4.05;66.31
76104;HTU21D;64831;44.870;37.336;2023-03-14T01:33:07;4.06;66.23
76104;HTU21D;64831;44.870;37.336;2023-03-14T01:35:33;4.07;66.13
76104;HTU21D;64831;44.870;37.336;2023-03-14T01:37:59;4.09;66.16
76104;HTU21D;64831;44.870;37.336;2023-03-14T01:40:25;4.09;66.27
76104;HTU21D;64831;44.870;37.336;2023-03-14T01:42:54;4.08;66.46
76104;HTU21D;64831;44.870;37.336;2023-03-14T01:48:05;4.01;67.06
76104;HTU21D;64831;44.870;37.336;2023-03-14T01:50:31;3.98;67.33
76104;HTU21D;64831;44.870;37.336;2023-03-14T01:52:56;3.99;67.21
76104;HTU21D;64831;44.870;37.336;2023-03-14T01:55:23;3.99;67.23
76104;HTU21D;64831;44.870;37.336;2023-03-14T01:57:51;3.97;67.43
76104;HTU21D;64831;44.870;37.336;2023-03-14T02:00:19;3.94;67.61
76104;HTU21D;64831;44.870;37.336;2023-03-14T02:02:51;3.91;67.87
76104;HTU21D;64831;44.870;37.336;2023-03-14T02:05:24;3.88;68.10
76104;HTU21D;64831;44.870;37.336;2023-03-14T02:08:15;3.86;68.40
76104;HTU21D;64831;44.870;37.336;2023-03-14T02:10:47;3.84;68.66
76104;HTU21D;64831;44.870;37.336;2023-03-14T02:13:16;3.82;69.00
76104;HTU21D;64831;44.870;37.336;2023-03-14T02:16:01;3.79;68.98
76104;HTU21D;64831;44.870;37.336;2023-03-14T02:18:53;3.75;69.25
76104;HTU21D;64831;44.870;37.336;2023-03-14T02:21:40;3.74;69.34
76104;HTU21D;64831;44.870;37.336;2023-03-14T02:24:51;3.68;69.62
76104;HTU21D;64831;44.870;37.336;2023-03-14T02:27:13;3.64;70.16
76104;HTU21D;64831;44.870;37.336;2023-03-14T02:32:15;3.59;70.06
76104;HTU21D;64831;44.870;37.336;2023-03-14T02:34:42;3.56;70.32
76104;HTU21D;64831;44.870;37.336;2023-03-14T02:37:08;3.49;70.77
76104;HTU21D;64831;44.870;37.336;2023-03-14T02:39:37;3.48;70.68
76104;HTU21D;64831;44.870;37.336;2023-03-14T02:42:03;3.46;71.06
76104;HTU21D;64831;44.870;37.336;2023-03-14T02:44:29;3.45;71.00
76104;HTU21D;64831;44.870;37.336;2023-03-14T02:46:55;3.45;71.03
76104;HTU21D;64831;44.870;37.336;2023-03-14T02:49:21;3.42;71.11
76104;HTU21D;64831;44.870;37.336;2023-03-14T02:51:47;3.39;72.16
76104;HTU21D;64831;44.870;37.336;2023-03-14T02:54:13;3.34;72.18
76104;HTU21D;64831;44.870;37.336;2023-03-14T02:56:39;3.34;72.16
76104;HTU21D;64831;44.870;37.336;2023-03-14T02:59:06;3.30;72.39
76104;HTU21D;64831;44.870;37.336;2023-03-14T03:01:52;3.27;72.66
76104;HTU21D;64831;44.870;37.336;2023-03-14T03:04:18;3.26;72.48
76104;HTU21D;64831;44.870;37.336;2023-03-14T03:06:45;3.23;73.03
76104;HTU21D;64831;44.870;37.336;2023-03-14T03:09:11;3.24;72.82
76104;HTU21D;64831;44.870;37.336;2023-03-14T03:11:37;3.24;72.79
76104;HTU21D;64831;44.870;37.336;2023-03-14T03:14:04;3.20;73.25
76104;HTU21D;64831;44.870;37.336;2023-03-14T03:16:30;3.21;73.67
76104;HTU21D;64831;44.870;37.336;2023-03-14T03:18:56;3.23;73.73
76104;HTU21D;64831;44.870;37.336;2023-03-14T03:21:21;3.25;73.57
76104;HTU21D;64831;44.870;37.336;2023-03-14T03:23:49;3.27;73.86
76104;HTU21D;64831;44.870;37.336;2023-03-14T03:26:14;3.29;73.84
76104;HTU21D;64831;44.870;37.336;2023-03-14T03:28:40;3.35;73.46
76104;HTU21D;64831;44.870;37.336;2023-03-14T03:31:10;3.41;73.26
76104;HTU21D;64831;44.870;37.336;2023-03-14T03:33:37;3.46;73.30
76104;HTU21D;64831;44.870;37.336;2023-03-14T03:36:03;3.53;73.13
76104;HTU21D;64831;44.870;37.336;2023-03-14T03:38:33;3.57;72.83
76104;HTU21D;64831;44.870;37.336;2023-03-14T03:41:07;3.58;72.83
76104;HTU21D;64831;44.870;37.336;2023-03-14T03:43:32;3.58;73.15
76104;HTU21D;64831;44.870;37.336;2023-03-14T03:46:03;3.58;73.12
76104;HTU21D;64831;44.870;37.336;2023-03-14T03:48:30;3.56;73.30
76104;HTU21D;64831;44.870;37.336;2023-03-14T03:50:56;3.58;72.89
76104;HTU21D;64831;44.870;37.336;2023-03-14T03:53:22;3.56;73.11
76104;HTU21D;64831;44.870;37.336;2023-03-14T03:55:48;3.56;73.30
76104;HTU21D;64831;44.870;37.336;2023-03-14T03:58:14;3.56;73.38
76104;HTU21D;64831;44.870;37.336;2023-03-14T04:00:39;3.56;73.42
76104;HTU21D;64831;44.870;37.336;2023-03-14T04:03:05;3.57;73.47
76104;HTU21D;64831;44.870;37.336;2023-03-14T04:05:31;3.60;73.19
76104;HTU21D;64831;44.870;37.336;2023-03-14T04:08:06;3.59;73.38
76104;HTU21D;64831;44.870;37.336;2023-03-14T04:10:35;3.63;73.41
76104;HTU21D;64831;44.870;37.336;2023-03-14T04:13:15;3.67;73.20
76104;HTU21D;64831;44.870;37.336;2023-03-14T04:15:43;3.70;73.21
76104;HTU21D;64831;44.870;37.336;2023-03-14T04:18:16;3.73;73.08
76104;HTU21D;64831;44.870;37.336;2023-03-14T04:20:43;3.75;73.04
76104;HTU21D;64831;44.870;37.336;2023-03-14T04:23:10;3.76;73.15
76104;HTU21D;64831;44.870;37.336;2023-03-14T04:25:35;3.77;73.38
76104;HTU21D;64831;44.870;37.336;2023-03-14T04:28:03;3.79;73.34
76104;HTU21D;64831;44.870;37.336;2023-03-14T04:30:31;3.80;73.16
76104;HTU21D;64831;44.870;37.336;2023-03-14T04:33:13;3.80;73.19
76104;HTU21D;64831;44.870;37.336;2023-03-14T04:35:52;3.82;73.22
76104;HTU21D;64831;44.870;37.336;2023-03-14T04:38:18;3.84;72.97
76104;HTU21D;64831;44.870;37.336;2023-03-14T04:40:46;3.86;73.02
76104;HTU21D;64831;44.870;37.336;2023-03-14T04:43:12;3.83;73.45
76104;HTU21D;64831;44.870;37.336;2023-03-14T04:45:45;3.86;73.32
76104;HTU21D;64831;44.870;37.336;2023-03-14T04:48:11;3.89;73.04
76104;HTU21D;64831;44.870;37.336;2023-03-14T04:50:38;3.91;72.83
76104;HTU21D;64831;44.870;37.336;2023-03-14T04:53:04;3.90;73.52
76104;HTU21D;64831;44.870;37.336;2023-03-14T04:55:30;3.92;73.25
76104;HTU21D;64831;44.870;37.336;2023-03-14T04:57:58;3.90;73.88
76104;HTU21D;64831;44.870;37.336;2023-03-14T05:00:24;3.93;73.41
76104;HTU21D;64831;44.870;37.336;2023-03-14T05:03:03;3.92;73.92
76104;HTU21D;64831;44.870;37.336;2023-03-14T05:05:52;3.92;73.83
76104;HTU21D;64831;44.870;37.336;2023-03-14T05:08:38;3.97;73.67
76104;HTU21D;64831;44.870;37.336;2023-03-14T05:11:12;3.98;73.60
76104;HTU21D;64831;44.870;37.336;2023-03-14T05:14:13;4.00;73.45
76104;HTU21D;64831;44.870;37.336;2023-03-14T05:16:53;3.99;73.56
76104;HTU21D;64831;44.870;37.336;2023-03-14T05:19:37;3.99;73.75
76104;HTU21D;64831;44.870;37.336;2023-03-14T05:22:32;4.02;73.46
76104;HTU21D;64831;44.870;37.336;2023-03-14T05:25:18;4.04;73.47
76104;HTU21D;64831;44.870;37.336;2023-03-14T05:28:12;4.05;73.61
76104;HTU21D;64831;44.870;37.336;2023-03-14T05:30:52;4.15;73.76
76104;HTU21D;64831;44.870;37.336;2023-03-14T05:33:50;4.33;73.57
76104;HTU21D;64831;44.870;37.336;2023-03-14T05:36:34;4.42;73.19
76104;HTU21D;64831;44.870;37.336;2023-03-14T05:38:59;4.46;72.94
76104;HTU21D;64831;44.870;37.336;2023-03-14T05:41:48;4.57;72.79
76104;HTU21D;64831;44.870;37.336;2023-03-14T05:44:34;4.63;72.50
76104;HTU21D;64831;44.870;37.336;2023-03-14T05:47:18;4.66;72.18
76104;HTU21D;64831;44.870;37.336;2023-03-14T05:50:16;4.59;72.22
76104;HTU21D;64831;44.870;37.336;2023-03-14T05:52:53;4.59;72.15
76104;HTU21D;64831;44.870;37.336;2023-03-14T05:55:36;4.60;72.38
76104;HTU21D;64831;44.870;37.336;2023-03-14T05:58:31;4.63;72.19
76104;HTU21D;64831;44.870;37.336;2023-03-14T06:01:21;4.66;72.13
76104;HTU21D;64831;44.870;37.336;2023-03-14T06:04:05;4.65;72.14
76104;HTU21D;64831;44.870;37.336;2023-03-14T06:06:32;4.68;72.13
76104;HTU21D;64831;44.870;37.336;2023-03-14T06:08:59;4.73;72.12
76104;HTU21D;64831;44.870;37.336;2023-03-14T06:11:25;4.77;71.99
76104;HTU21D;64831;44.870;37.336;2023-03-14T06:13:51;4.77;71.92
76104;HTU21D;64831;44.870;37.336;2023-03-14T06:16:17;4.84;71.75
76104;HTU21D;64831;44.870;37.336;2023-03-14T06:18:42;0.00;71.64
76104;HTU21D;64831;44.870;37.336;2023-03-14T06:21:11;4.96;71.64
76104;HTU21D;64831;44.870;37.336;2023-03-14T06:23:37;5.00;71.48
76104;HTU21D;64831;44.870;37.336;2023-03-14T06:26:04;5.03;71.33
76104;HTU21D;64831;44.870;37.336;2023-03-14T06:28:30;5.07;71.26
76104;HTU21D;64831;44.870;37.336;2023-03-14T06:30:59;5.11;71.19
76104;HTU21D;64831;44.870;37.336;2023-03-14T06:33:28;5.17;71.12
76104;HTU21D;64831;44.870;37.336;2023-03-14T06:35:53;5.19;70.92
76104;HTU21D;64831;44.870;37.336;2023-03-14T06:38:20;5.17;70.92
76104;HTU21D;64831;44.870;37.336;2023-03-14T06:40:47;5.15;71.01
76104;HTU21D;64831;44.870;37.336;2023-03-14T06:43:17;5.08;71.33
76104;HTU21D;64831;44.870;37.336;2023-03-14T06:45:45;5.08;71.29
76104;HTU21D;64831;44.870;37.336;2023-03-14T06:48:11;5.05;71.41
76104;HTU21D;64831;44.870;37.336;2023-03-14T06:50:47;5.00;71.63
76104;HTU21D;64831;44.870;37.336;2023-03-14T06:53:13;4.95;71.74
76104;HTU21D;64831;44.870;37.336;2023-03-14T06:55:41;4.93;72.26
76104;HTU21D;64831;44.870;37.336;2023-03-14T06:58:08;4.95;72.41
76104;HTU21D;64831;44.870;37.336;2023-03-14T07:00:40;5.00;72.24
76104;HTU21D;64831;44.870;37.336;2023-03-14T07:03:05;4.96;72.63
76104;HTU21D;64831;44.870;37.336;2023-03-14T07:05:36;4.94;72.93
76104;HTU21D;64831;44.870;37.336;2023-03-14T07:08:04;4.91;72.87
76104;HTU21D;64831;44.870;37.336;2023-03-14T07:10:30;4.87;72.96
76104;HTU21D;64831;44.870;37.336;2023-03-14T07:12:55;4.88;72.85
76104;HTU21D;64831;44.870;37.336;2023-03-14T07:15:24;4.80;73.61
76104;HTU21D;64831;44.870;37.336;2023-03-14T07:17:55;4.76;73.86
76104;HTU21D;64831;44.870;37.336;2023-03-14T07:20:22;4.75;73.77
76104;HTU21D;64831;44.870;37.336;2023-03-14T07:22:49;4.72;73.75
76104;HTU21D;64831;44.870;37.336;2023-03-14T07:25:16;4.72;73.56
76104;HTU21D;64831;44.870;37.336;2023-03-14T07:27:43;4.73;73.62
76104;HTU21D;64831;44.870;37.336;2023-03-14T07:30:09;4.74;73.58
76104;HTU21D;64831;44.870;37.336;2023-03-14T07:32:35;4.75;73.50
76104;HTU21D;64831;44.870;37.336;2023-03-14T07:35:01;4.75;73.31
76104;HTU21D;64831;44.870;37.336;2023-03-14T07:37:27;4.74;73.49
76104;HTU21D;64831;44.870;37.336;2023-03-14T07:39:52;4.78;73.47
76104;HTU21D;64831;44.870;37.336;2023-03-14T07:42:22;4.81;73.63
76104;HTU21D;64831;44.870;37.336;2023-03-14T07:45:00;4.87;73.86
76104;HTU21D;64831;44.870;37.336;2023-03-14T07:47:25;4.93;73.73
76104;HTU21D;64831;44.870;37.336;2023-03-14T07:49:51;4.97;73.64
76104;HTU21D;64831;44.870;37.336;2023-03-14T07:52:17;5.01;73.65
76104;HTU21D;64831;44.870;37.336;2023-03-14T07:54:42;5.02;73.70
76104;HTU21D;64831;44.870;37.336;2023-03-14T07:57:08;5.07;73.45
76104;HTU21D;64831;44.870;37.336;2023-03-14T07:59:34;5.09;73.32
76104;HTU21D;64831;44.870;37.336;2023-03-14T08:01:59;5.12;73.24
76104;HTU21D;64831;44.870;37.336;2023-03-14T08:04:25;5.17;73.47
76104;HTU21D;64831;44.870;37.336;2023-03-14T08:06:52;5.24;73.40
76104;HTU21D;64831;44.870;37.336;2023-03-14T08:09:19;5.31;73.35
76104;HTU21D;64831;44.870;37.336;2023-03-14T08:11:45;5.39;73.24
76104;HTU21D;64831;44.870;37.336;2023-03-14T08:14:10;5.46;73.19
76104;HTU21D;64831;44.870;37.336;2023-03-14T08:16:36;5.53;72.94
76104;HTU21D;64831;44.870;37.336;2023-03-14T08:19:02;5.59;72.80
76104;HTU21D;64831;44.870;37.336;2023-03-14T08:21:28;5.63;73.09
76104;HTU21D;64831;44.870;37.336;2023-03-14T08:23:53;5.68;72.84
76104;HTU21D;64831;44.870;37.336;2023-03-14T08:26:19;5.74;72.79
76104;HTU21D;64831;44.870;37.336;2023-03-14T08:28:45;5.75;73.33
76104;HTU21D;64831;44.870;37.336;2023-03-14T08:31:10;5.78;72.96
76104;HTU21D;64831;44.870;37.336;2023-03-14T08:33:36;5.78;72.76
76104;HTU21D;64831;44.870;37.336;2023-03-14T08:36:02;5.80;72.66
76104;HTU21D;64831;44.870;37.336;2023-03-14T08:38:27;5.81;72.54
76104;HTU21D;64831;44.870;37.336;2023-03-14T08:40:59;5.77;72.99
76104;HTU21D;64831;44.870;37.336;2023-03-14T08:43:26;5.72;73.64
76104;HTU21D;64831;44.870;37.336;2023-03-14T08:45:51;5.72;73.44
76104;HTU21D;64831;44.870;37.336;2023-03-14T08:48:17;5.72;73.13
76104;HTU21D;64831;44.870;37.336;2023-03-14T08:50:45;5.71;73.31
76104;HTU21D;64831;44.870;37.336;2023-03-14T08:53:10;5.67;73.61
76104;HTU21D;64831;44.870;37.336;2023-03-14T08:55:36;5.63;73.94
76104;HTU21D;64831;44.870;37.336;2023-03-14T08:58:02;5.61;73.64
76104;HTU21D;64831;44.870;37.336;2023-03-14T09:00:27;5.60;73.42
76104;HTU21D;64831;44.870;37.336;2023-03-14T09:02:53;5.59;73.35
76104;HTU21D;64831;44.870;37.336;2023-03-14T09:05:19;5.59;74.09
76104;HTU21D;64831;44.870;37.336;2023-03-14T09:07:44;5.60;74.58
76104;HTU21D;64831;44.870;37.336;2023-03-14T09:10:10;5.59;74.77
76104;HTU21D;64831;44.870;37.336;2023-03-14T09:12:36;5.60;74.36
76104;HTU21D;64831;44.870;37.336;2023-03-14T09:15:02;5.55;74.64
76104;HTU21D;64831;44.870;37.336;2023-03-14T09:17:28;5.52;75.02
76104;HTU21D;64831;44.870;37.336;2023-03-14T09:19:53;5.51;74.87
76104;HTU21D;64831;44.870;37.336;2023-03-14T09:22:19;5.51;74.83
76104;HTU21D;64831;44.870;37.336;2023-03-14T09:24:45;5.50;74.73
76104;HTU21D;64831;44.870;37.336;2023-03-14T09:27:11;5.54;74.14
76104;HTU21D;64831;44.870;37.336;2023-03-14T09:29:37;5.51;74.29
76104;HTU21D;64831;44.870;37.336;2023-03-14T09:32:03;5.50;74.22
76104;HTU21D;64831;44.870;37.336;2023-03-14T09:34:29;5.51;74.23
76104;HTU21D;64831;44.870;37.336;2023-03-14T09:36:54;5.50;74.35
76104;HTU21D;64831;44.870;37.336;2023-03-14T09:39:20;5.55;74.03
76104;HTU21D;64831;44.870;37.336;2023-03-14T09:41:46;5.55;74.09
76104;HTU21D;64831;44.870;37.336;2023-03-14T09:44:16;5.55;74.16
76104;HTU21D;64831;44.870;37.336;2023-03-14T09:46:45;5.59;73.91
76104;HTU21D;64831;44.870;37.336;2023-03-14T09:51:41;5.62;73.84
76104;HTU21D;64831;44.870;37.336;2023-03-14T09:54:14;5.66;73.74
76104;HTU21D;64831;44.870;37.336;2023-03-14T09:56:43;5.68;73.71
76104;HTU21D;64831;44.870;37.336;2023-03-14T09:59:08;5.72;73.51
76104;HTU21D;64831;44.870;37.336;2023-03-14T10:01:38;5.78;73.48
76104;HTU21D;64831;44.870;37.336;2023-03-14T10:04:10;5.80;73.54
76104;HTU21D;64831;44.870;37.336;2023-03-14T10:06:38;5.84;73.35
76104;HTU21D;64831;44.870;37.336;2023-03-14T10:09:04;5.86;73.35
76104;HTU21D;64831;44.870;37.336;2023-03-14T10:11:31;5.89;73.32
76104;HTU21D;64831;44.870;37.336;2023-03-14T10:16:33;5.95;73.23
76104;HTU21D;64831;44.870;37.336;2023-03-14T10:19:03;6.01;73.25
76104;HTU21D;64831;44.870;37.336;2023-03-14T10:21:30;6.05;73.48
76104;HTU21D;64831;44.870;37.336;2023-03-14T10:26:40;6.12;73.27
76104;HTU21D;64831;44.870;37.336;2023-03-14T10:29:10;6.15;73.35
76104;HTU21D;64831;44.870;37.336;2023-03-14T10:31:50;6.17;73.34
76104;HTU21D;64831;44.870;37.336;2023-03-14T10:34:17;6.21;73.28
76104;HTU21D;64831;44.870;37.336;2023-03-14T10:36:43;6.26;73.01
76104;HTU21D;64831;44.870;37.336;2023-03-14T10:41:47;6.33;72.71
76104;HTU21D;64831;44.870;37.336;2023-03-14T10:44:13;6.35;72.68
76104;HTU21D;64831;44.870;37.336;2023-03-14T10:46:40;6.39;72.69
76104;HTU21D;64831;44.870;37.336;2023-03-14T10:49:27;6.42;72.48
76104;HTU21D;64831;44.870;37.336;2023-03-14T10:51:53;6.45;72.27
76104;HTU21D;64831;44.870;37.336;2023-03-14T10:54:20;6.48;72.12
76104;HTU21D;64831;44.870;37.336;2023-03-14T10:56:55;6.49;72.09
76104;HTU21D;64831;44.870;37.336;2023-03-14T10:59:21;6.53;72.04
76104;HTU21D;64831;44.870;37.336;2023-03-14T14:54:59;8.33;67.36
76104;HTU21D;64831;44.870;37.336;2023-03-14T14:57:26;8.29;67.48
76104;HTU21D;64831;44.870;37.336;2023-03-14T15:00:05;8.19;67.93
76104;HTU21D;64831;44.870;37.336;2023-03-14T15:02:36;8.11;68.56
76104;HTU21D;64831;44.870;37.336;2023-03-14T15:05:05;8.08;68.44
76104;HTU21D;64831;44.870;37.336;2023-03-14T15:07:31;8.02;68.78
76104;HTU21D;64831;44.870;37.336;2023-03-14T15:09:57;7.99;69.10
76104;HTU21D;64831;44.870;37.336;2023-03-14T15:12:22;7.98;69.08
76104;HTU21D;64831;44.870;37.336;2023-03-14T15:14:50;7.97;68.91
76104;HTU21D;64831;44.870;37.336;2023-03-14T15:17:15;7.91;69.26
76104;HTU21D;64831;44.870;37.336;2023-03-14T15:19:41;7.88;69.42
76104;HTU21D;64831;44.870;37.336;2023-03-14T15:22:13;7.86;69.27
76104;HTU21D;64831;44.870;37.336;2023-03-14T15:24:40;7.84;68.99
76104;HTU21D;64831;44.870;37.336;2023-03-14T15:27:09;7.82;68.94
76104;HTU21D;64831;44.870;37.336;2023-03-14T15:29:35;7.78;69.45
76104;HTU21D;64831;44.870;37.336;2023-03-14T15:32:02;7.76;69.20
76104;HTU21D;64831;44.870;37.336;2023-03-14T15:34:28;7.75;69.18
76104;HTU21D;64831;44.870;37.336;2023-03-14T15:36:53;7.72;69.48
76104;HTU21D;64831;44.870;37.336;2023-03-14T15:39:19;7.72;69.64
76104;HTU21D;64831;44.870;37.336;2023-03-14T15:41:45;7.71;69.65
76104;HTU21D;64831;44.870;37.336;2023-03-14T15:44:10;7.67;69.97
76104;HTU21D;64831;44.870;37.336;2023-03-14T15:46:36;7.68;69.44
76104;HTU21D;64831;44.870;37.336;2023-03-14T15:49:02;7.67;69.23
76104;HTU21D;64831;44.870;37.336;2023-03-14T15:51:28;7.67;69.38
76104;HTU21D;64831;44.870;37.336;2023-03-14T15:53:53;7.65;69.42
76104;HTU21D;64831;44.870;37.336;2023-03-14T15:56:19;7.63;69.78
76104;HTU21D;64831;44.870;37.336;2023-03-14T15:58:45;7.64;69.90
76104;HTU21D;64831;44.870;37.336;2023-03-14T16:01:14;7.62;69.97
76104;HTU21D;64831;44.870;37.336;2023-03-14T16:03:41;7.60;70.00
76104;HTU21D;64831;44.870;37.336;2023-03-14T16:06:09;7.59;70.05
76104;HTU21D;64831;44.870;37.336;2023-03-14T16:08:34;7.58;70.06
76104;HTU21D;64831;44.870;37.336;2023-03-14T16:11:00;7.57;69.76
76104;HTU21D;64831;44.870;37.336;2023-03-14T16:13:26;7.58;69.78
76104;HTU21D;64831;44.870;37.336;2023-03-14T16:15:56;7.58;70.32
76104;HTU21D;64831;44.870;37.336;2023-03-14T16:18:22;7.58;70.29
76104;HTU21D;64831;44.870;37.336;2023-03-14T16:20:55;7.59;70.10
76104;HTU21D;64831;44.870;37.336;2023-03-14T16:23:21;7.59;70.33
76104;HTU21D;64831;44.870;37.336;2023-03-14T16:25:46;7.60;70.02
76104;HTU21D;64831;44.870;37.336;2023-03-14T16:28:12;7.63;70.19
76104;HTU21D;64831;44.870;37.336;2023-03-14T16:30:38;7.65;70.09
76104;HTU21D;64831;44.870;37.336;2023-03-14T16:33:04;7.69;69.97
76104;HTU21D;64831;44.870;37.336;2023-03-14T16:35:36;7.72;69.74
76104;HTU21D;64831;44.870;37.336;2023-03-14T16:38:02;7.76;69.80
76104;HTU21D;64831;44.870;37.336;2023-03-14T16:40:28;7.79;69.84
76104;HTU21D;64831;44.870;37.336;2023-03-14T16:42:54;7.83;70.19
76104;HTU21D;64831;44.870;37.336;2023-03-14T16:45:19;7.85;69.95
76104;HTU21D;64831;44.870;37.336;2023-03-14T16:47:45;7.88;69.80
76104;HTU21D;64831;44.870;37.336;2023-03-14T16:50:11;7.92;69.69
76104;HTU21D;64831;44.870;37.336;2023-03-14T16:52:36;7.93;69.56
76104;HTU21D;64831;44.870;37.336;2023-03-14T16:55:02;7.94;69.54
76104;HTU21D;64831;44.870;37.336;2023-03-14T16:57:29;7.97;69.46
76104;HTU21D;64831;44.870;37.336;2023-03-14T16:59:54;7.97;69.45
76104;HTU21D;64831;44.870;37.336;2023-03-14T17:02:20;7.99;69.34
76104;HTU21D;64831;44.870;37.336;2023-03-14T17:04:46;7.98;69.23
76104;HTU21D;64831;44.870;37.336;2023-03-14T17:07:11;7.99;69.29
76104;HTU21D;64831;44.870;37.336;2023-03-14T17:09:37;7.99;69.24
76104;HTU21D;64831;44.870;37.336;2023-03-14T17:12:03;7.98;69.11
76104;HTU21D;64831;44.870;37.336;2023-03-14T17:14:29;7.98;68.99
76104;HTU21D;64831;44.870;37.336;2023-03-14T17:16:55;7.98;69.10
76104;HTU21D;64831;44.870;37.336;2023-03-14T17:19:20;7.98;69.20
76104;HTU21D;64831;44.870;37.336;2023-03-14T17:21:46;8.00;69.17
76104;HTU21D;64831;44.870;37.336;2023-03-14T17:24:12;8.01;69.12
76104;HTU21D;64831;44.870;37.336;2023-03-14T17:26:37;8.03;69.49
76104;HTU21D;64831;44.870;37.336;2023-03-14T17:29:03;8.03;69.47
76104;HTU21D;64831;44.870;37.336;2023-03-14T17:31:29;8.05;69.16
76104;HTU21D;64831;44.870;37.336;2023-03-14T17:33:54;8.07;69.32
76104;HTU21D;64831;44.870;37.336;2023-03-14T17:36:20;8.11;69.25
76104;HTU21D;64831;44.870;37.336;2023-03-14T17:38:49;8.13;69.11
76104;HTU21D;64831;44.870;37.336;2023-03-14T17:41:15;8.16;69.25
76104;HTU21D;64831;44.870;37.336;2023-03-14T17:43:41;8.20;69.41
76104;HTU21D;64831;44.870;37.336;2023-03-14T17:46:09;8.24;69.35
76104;HTU21D;64831;44.870;37.336;2023-03-14T17:48:46;8.29;69.28
76104;HTU21D;64831;44.870;37.336;2023-03-14T17:51:11;8.32;69.20
76104;HTU21D;64831;44.870;37.336;2023-03-14T17:53:37;8.33;69.27
76104;HTU21D;64831;44.870;37.336;2023-03-14T17:56:03;8.28;69.14
76104;HTU21D;64831;44.870;37.336;2023-03-14T17:58:29;8.23;69.28
76104;HTU21D;64831;44.870;37.336;2023-03-14T18:00:57;8.20;69.43
76104;HTU21D;64831;44.870;37.336;2023-03-14T18:03:31;8.17;69.34
76104;HTU21D;64831;44.870;37.336;2023-03-14T18:05:57;8.14;69.39
76104;HTU21D;64831;44.870;37.336;2023-03-14T18:08:22;8.13;69.24
76104;HTU21D;64831;44.870;37.336;2023-03-14T18:10:51;8.14;69.56
76104;HTU21D;64831;44.870;37.336;2023-03-14T18:13:17;8.15;69.65
76104;HTU21D;64831;44.870;37.336;2023-03-14T18:15:43;8.18;69.61
76104;HTU21D;64831;44.870;37.336;2023-03-14T18:18:08;8.18;69.87
76104;HTU21D;64831;44.870;37.336;2023-03-14T18:20:34;8.17;69.53
76104;HTU21D;64831;44.870;37.336;2023-03-14T18:23:00;8.16;69.50
76104;HTU21D;64831;44.870;37.336;2023-03-14T18:25:26;8.14;69.64
76104;HTU21D;64831;44.870;37.336;2023-03-14T18:27:52;8.14;69.74
76104;HTU21D;64831;44.870;37.336;2023-03-14T18:30:17;8.14;69.79
76104;HTU21D;64831;44.870;37.336;2023-03-14T18:32:44;8.14;69.90
76104;HTU21D;64831;44.870;37.336;2023-03-14T18:35:10;8.14;69.80
76104;HTU21D;64831;44.870;37.336;2023-03-14T18:37:37;8.13;69.53
76104;HTU21D;64831;44.870;37.336;2023-03-14T18:40:03;8.15;69.52
76104;HTU21D;64831;44.870;37.336;2023-03-14T18:42:31;8.15;69.39
76104;HTU21D;64831;44.870;37.336;2023-03-14T18:44:56;8.12;69.57
76104;HTU21D;64831;44.870;37.336;2023-03-14T18:47:22;8.11;69.36
76104;HTU21D;64831;44.870;37.336;2023-03-14T18:49:50;8.07;69.27
76104;HTU21D;64831;44.870;37.336;2023-03-14T18:52:16;8.04;69.24
76104;HTU21D;64831;44.870;37.336;2023-03-14T18:54:41;8.02;69.31
76104;HTU21D;64831;44.870;37.336;2023-03-14T18:57:07;8.00;69.69
76104;HTU21D;64831;44.870;37.336;2023-03-14T18:59:33;7.96;69.47
76104;HTU21D;64831;44.870;37.336;2023-03-14T19:01:58;7.91;69.47
76104;HTU21D;64831;44.870;37.336;2023-03-14T19:04:24;7.86;69.54
76104;HTU21D;64831;44.870;37.336;2023-03-14T19:06:50;7.85;69.63
76104;HTU21D;64831;44.870;37.336;2023-03-14T19:09:18;7.84;69.52
76104;HTU21D;64831;44.870;37.336;2023-03-14T19:11:44;7.83;69.71
76104;HTU21D;64831;44.870;37.336;2023-03-14T19:14:10;7.81;69.66
76104;HTU21D;64831;44.870;37.336;2023-03-14T19:16:36;7.76;69.66
76104;HTU21D;64831;44.870;37.336;2023-03-14T19:19:02;7.73;69.84
76104;HTU21D;64831;44.870;37.336;2023-03-14T19:21:31;7.72;69.63
76104;HTU21D;64831;44.870;37.336;2023-03-14T19:23:58;7.70;69.67
76104;HTU21D;64831;44.870;37.336;2023-03-14T19:26:25;7.68;70.02
76104;HTU21D;64831;44.870;37.336;2023-03-14T19:28:54;7.65;69.90
76104;HTU21D;64831;44.870;37.336;2023-03-14T19:31:20;7.63;70.32